sensor_id;sensor_type;location;lat;lon;timestamp;pressure;altitude;pressure_sealevel;temperature;humidity
53647;BME280;39550;52.230;5.194;2023-08-07T00:00:35;101115.63;;;14.37;87.73
53647;BME280;39550;52.230;5.194;2023-08-07T00:03:03;101158.75;;;14.64;87.26
53647;BME280;39550;52.230;5.194;2023-08-07T00:05:29;101091.44;;;14.24;87.37
53647;BME280;39550;52.230;5.194;2023-08-07T00:07:55;101078.53;;;14.15;87.36
53647;BME280;39550;52.230;5.194;2023-08-07T00:10:20;101099.22;;;14.30;87.32
53647;BME280;39550;52.230;5.194;2023-08-07T00:12:46;101135.44;;;14.55;87.80
53647;BME280;39550;52.230;5.194;2023-08-07T00:15:11;101098.31;;;14.30;87.26
53647;BME280;39550;52.230;5.194;2023-08-07T00:17:37;101025.91;;;13.87;87.65
53647;BME280;39550;52.230;5.194;2023-08-07T00:20:03;101175.19;;;14.67;86.95
53647;BME280;39550;52.230;5.194;2023-08-07T00:22:29;101035.44;;;13.86;87.45
53647;BME280;39550;52.230;5.194;2023-08-07T00:24:55;101150.97;;;14.64;87.18
53647;BME280;39550;52.230;5.194;2023-08-07T00:27:20;101143.19;;;14.60;87.46
53647;BME280;39550;52.230;5.194;2023-08-07T00:29:46;101152.72;;;14.62;87.16
53647;BME280;39550;52.230;5.194;2023-08-07T00:32:11;101155.31;;;14.62;86.85
53647;BME280;39550;52.230;5.194;2023-08-07T00:34:36;101151.81;;;14.60;87.24
53647;BME280;39550;52.230;5.194;2023-08-07T00:37:02;101136.31;;;14.50;87.83
53647;BME280;39550;52.230;5.194;2023-08-07T00:39:27;101049.22;;;13.98;86.99
53647;BME280;39550;52.230;5.194;2023-08-07T00:41:53;101148.38;;;14.64;87.25
53647;BME280;39550;52.230;5.194;2023-08-07T00:44:19;101156.97;;;14.62;87.14
53647;BME280;39550;52.230;5.194;2023-08-07T00:46:44;101019.00;;;13.83;87.32
53647;BME280;39550;52.230;5.194;2023-08-07T00:49:11;101062.97;;;14.10;87.07
53647;BME280;39550;52.230;5.194;2023-08-07T00:51:38;101057.81;;;14.07;87.03
53647;BME280;39550;52.230;5.194;2023-08-07T00:54:04;101019.00;;;13.83;87.08
53647;BME280;39550;52.230;5.194;2023-08-07T00:56:31;101006.94;;;13.78;86.81
53647;BME280;39550;52.230;5.194;2023-08-07T00:58:58;101083.69;;;14.27;86.78
53647;BME280;39550;52.230;5.194;2023-08-07T01:01:25;101080.22;;;14.22;87.04
53647;BME280;39550;52.230;5.194;2023-08-07T01:03:50;101139.72;;;14.59;87.10
53647;BME280;39550;52.230;5.194;2023-08-07T01:06:16;101142.31;;;14.61;87.02
53647;BME280;39550;52.230;5.194;2023-08-07T01:08:41;101118.13;;;14.48;86.97
53647;BME280;39550;52.230;5.194;2023-08-07T01:11:09;101143.19;;;14.60;86.67
53647;BME280;39550;52.230;5.194;2023-08-07T01:13:45;101095.72;;;14.31;87.36
53647;BME280;39550;52.230;5.194;2023-08-07T01:16:48;101131.09;;;14.53;86.88
53647;BME280;39550;52.230;5.194;2023-08-07T01:19:27;101097.47;;;14.33;87.04
53647;BME280;39550;52.230;5.194;2023-08-07T01:22:12;101119.91;;;14.43;86.74
53647;BME280;39550;52.230;5.194;2023-08-07T01:24:40;101085.44;;;14.19;87.19
53647;BME280;39550;52.230;5.194;2023-08-07T01:27:35;101049.22;;;13.98;86.70
53647;BME280;39550;52.230;5.194;2023-08-07T01:35:20;101105.25;;;14.22;86.86
53647;BME280;39550;52.230;5.194;2023-08-07T01:37:48;101071.66;;;14.00;86.85
53647;BME280;39550;52.230;5.194;2023-08-07T01:40:14;101144.06;;;14.48;86.82
53647;BME280;39550;52.230;5.194;2023-08-07T01:42:40;101098.38;;;14.21;86.58
53647;BME280;39550;52.230;5.194;2023-08-07T01:45:06;101143.25;;;14.44;86.46
53647;BME280;39550;52.230;5.194;2023-08-07T01:47:31;101074.22;;;14.03;86.79
53647;BME280;39550;52.230;5.194;2023-08-07T01:49:57;101025.09;;;13.74;86.52
53647;BME280;39550;52.230;5.194;2023-08-07T01:52:22;101171.72;;;14.58;86.84
53647;BME280;39550;52.230;5.194;2023-08-07T01:54:48;101091.47;;;14.13;86.43
53647;BME280;39550;52.230;5.194;2023-08-07T01:57:13;101158.78;;;14.49;86.48
53647;BME280;39550;52.230;5.194;2023-08-07T01:59:39;101154.47;;;14.51;86.98
53647;BME280;39550;52.230;5.194;2023-08-07T02:02:04;101120.81;;;14.28;86.43
53647;BME280;39550;52.230;5.194;2023-08-07T02:04:30;101138.94;;;14.39;86.54
53647;BME280;39550;52.230;5.194;2023-08-07T02:06:55;101124.28;;;14.27;86.15
53647;BME280;39550;52.230;5.194;2023-08-07T02:09:21;101119.94;;;14.24;86.67
53647;BME280;39550;52.230;5.194;2023-08-07T02:11:47;101044.06;;;13.82;85.91
53647;BME280;39550;52.230;5.194;2023-08-07T02:14:12;101107.03;;;14.15;86.62
53647;BME280;39550;52.230;5.194;2023-08-07T02:16:38;101159.63;;;14.51;86.79
53647;BME280;39550;52.230;5.194;2023-08-07T02:19:03;101109.59;;;14.21;86.07
53647;BME280;39550;52.230;5.194;2023-08-07T02:21:28;101144.09;;;14.36;86.01
53647;BME280;39550;52.230;5.194;2023-08-07T02:23:56;101168.28;;;14.50;86.36
53647;BME280;39550;52.230;5.194;2023-08-07T02:26:21;101135.53;;;14.27;86.55
53647;BME280;39550;52.230;5.194;2023-08-07T02:28:47;101045.81;;;13.74;86.10
53647;BME280;39550;52.230;5.194;2023-08-07T02:31:12;101138.97;;;14.20;86.33
53647;BME280;39550;52.230;5.194;2023-08-07T02:33:38;101151.94;;;14.26;86.51
53647;BME280;39550;52.230;5.194;2023-08-07T02:36:03;101097.53;;;14.05;86.86
53647;BME280;39550;52.230;5.194;2023-08-07T02:38:29;101132.94;;;14.20;86.54
53647;BME280;39550;52.230;5.194;2023-08-07T02:40:54;101113.13;;;13.99;86.54
53647;BME280;39550;52.230;5.194;2023-08-07T02:43:20;101103.59;;;13.99;86.31
53647;BME280;39550;52.230;5.194;2023-08-07T02:45:45;101139.00;;;14.08;86.39
53647;BME280;39550;52.230;5.194;2023-08-07T02:48:13;101175.22;;;14.33;86.52
53647;BME280;39550;52.230;5.194;2023-08-07T02:50:39;101103.63;;;13.98;86.27
53647;BME280;39550;52.230;5.194;2023-08-07T02:53:04;101107.06;;;13.96;86.82
53647;BME280;39550;52.230;5.194;2023-08-07T02:55:33;101060.50;;;13.69;86.48
53647;BME280;39550;52.230;5.194;2023-08-07T02:57:58;101056.19;;;13.65;86.90
53647;BME280;39550;52.230;5.194;2023-08-07T03:00:24;101133.81;;;14.17;86.85
53647;BME280;39550;52.230;5.194;2023-08-07T03:02:53;101013.06;;;13.45;86.62
53647;BME280;39550;52.230;5.194;2023-08-07T03:05:22;101138.97;;;14.19;86.66
53647;BME280;39550;52.230;5.194;2023-08-07T03:07:55;101103.63;;;13.94;86.91
53647;BME280;39550;52.230;5.194;2023-08-07T03:10:21;101095.84;;;13.94;86.54
53647;BME280;39550;52.230;5.194;2023-08-07T03:12:49;101100.16;;;13.89;86.91
53647;BME280;39550;52.230;5.194;2023-08-07T03:15:15;101101.03;;;13.94;86.59
53647;BME280;39550;52.230;5.194;2023-08-07T03:17:40;101099.31;;;13.93;87.28
53647;BME280;39550;52.230;5.194;2023-08-07T03:20:08;101126.03;;;14.14;86.76
53647;BME280;39550;52.230;5.194;2023-08-07T03:22:35;101012.22;;;13.44;86.15
53647;BME280;39550;52.230;5.194;2023-08-07T03:25:00;101088.94;;;13.90;86.25
53647;BME280;39550;52.230;5.194;2023-08-07T03:27:26;101031.16;;;13.59;86.69
53647;BME280;39550;52.230;5.194;2023-08-07T03:29:51;101081.19;;;13.92;86.41
53647;BME280;39550;52.230;5.194;2023-08-07T03:32:17;101035.47;;;13.55;86.67
53647;BME280;39550;52.230;5.194;2023-08-07T03:34:42;101085.47;;;13.91;86.40
53647;BME280;39550;52.230;5.194;2023-08-07T03:37:08;101131.22;;;14.17;85.66
53647;BME280;39550;52.230;5.194;2023-08-07T03:39:33;101086.38;;;13.89;86.24
53647;BME280;39550;52.230;5.194;2023-08-07T03:41:59;101058.75;;;13.68;86.75
53647;BME280;39550;52.230;5.194;2023-08-07T03:44:27;101043.25;;;13.58;86.57
53647;BME280;39550;52.230;5.194;2023-08-07T03:46:52;101105.34;;;14.00;86.45
53647;BME280;39550;52.230;5.194;2023-08-07T03:49:21;101120.00;;;14.07;86.54
53647;BME280;39550;52.230;5.194;2023-08-07T03:51:46;101128.63;;;14.14;86.58
53647;BME280;39550;52.230;5.194;2023-08-07T03:54:12;101116.53;;;14.04;86.83
53647;BME280;39550;52.230;5.194;2023-08-07T03:56:37;101049.28;;;13.60;86.63
53647;BME280;39550;52.230;5.194;2023-08-07T03:59:03;101126.91;;;14.13;86.48
53647;BME280;39550;52.230;5.194;2023-08-07T04:01:28;101097.56;;;13.92;86.27
53647;BME280;39550;52.230;5.194;2023-08-07T04:03:54;101032.03;;;13.56;86.70
53647;BME280;39550;52.230;5.194;2023-08-07T04:06:20;101113.97;;;14.01;85.84
53647;BME280;39550;52.230;5.194;2023-08-07T04:08:46;101076.00;;;13.79;86.64
53647;BME280;39550;52.230;5.194;2023-08-07T04:11:12;101106.19;;;13.91;86.50
53647;BME280;39550;52.230;5.194;2023-08-07T04:13:38;101140.72;;;14.09;86.65
53647;BME280;39550;52.230;5.194;2023-08-07T04:16:06;101130.34;;;14.09;86.53
53647;BME280;39550;52.230;5.194;2023-08-07T04:18:33;101139.00;;;14.11;86.71
53647;BME280;39550;52.230;5.194;2023-08-07T04:21:01;101120.88;;;14.00;86.74
53647;BME280;39550;52.230;5.194;2023-08-07T04:23:26;101058.78;;;13.63;86.38
53647;BME280;39550;52.230;5.194;2023-08-07T04:25:53;101104.50;;;13.90;86.74
53647;BME280;39550;52.230;5.194;2023-08-07T04:28:18;101192.50;;;14.40;86.08
53647;BME280;39550;52.230;5.194;2023-08-07T04:30:44;101154.53;;;14.14;86.32
53647;BME280;39550;52.230;5.194;2023-08-07T04:33:10;101052.72;;;13.59;86.18
53647;BME280;39550;52.230;5.194;2023-08-07T04:35:39;101132.09;;;14.01;86.14
53647;BME280;39550;52.230;5.194;2023-08-07T04:38:05;101148.50;;;14.07;86.38
53647;BME280;39550;52.230;5.194;2023-08-07T04:40:30;101133.84;;;13.99;86.38
53647;BME280;39550;52.230;5.194;2023-08-07T04:42:56;101173.53;;;14.22;86.66
53647;BME280;39550;52.230;5.194;2023-08-07T04:45:21;101210.66;;;14.43;86.07
53647;BME280;39550;52.230;5.194;2023-08-07T04:47:47;101120.03;;;13.83;86.24
53647;BME280;39550;52.230;5.194;2023-08-07T04:50:13;101133.00;;;13.90;86.40
53647;BME280;39550;52.230;5.194;2023-08-07T04:52:46;101119.16;;;13.88;86.33
53647;BME280;39550;52.230;5.194;2023-08-07T04:55:14;101071.72;;;13.55;86.02
53647;BME280;39550;52.230;5.194;2023-08-07T04:58:02;101078.63;;;13.56;86.43
53647;BME280;39550;52.230;5.194;2023-08-07T05:00:28;101224.47;;;14.36;86.60
53647;BME280;39550;52.230;5.194;2023-08-07T05:02:54;101221.88;;;14.36;86.33
53647;BME280;39550;52.230;5.194;2023-08-07T05:05:19;101218.47;;;14.30;86.20
53647;BME280;39550;52.230;5.194;2023-08-07T05:07:47;101227.06;;;14.36;87.11
53647;BME280;39550;52.230;5.194;2023-08-07T05:10:12;101239.16;;;14.40;86.39
53647;BME280;39550;52.230;5.194;2023-08-07T05:12:38;101233.13;;;14.30;86.35
53647;BME280;39550;52.230;5.194;2023-08-07T05:15:03;101240.03;;;14.40;86.78
53647;BME280;39550;52.230;5.194;2023-08-07T05:17:29;101231.41;;;14.37;86.26
53647;BME280;39550;52.230;5.194;2023-08-07T05:19:55;101240.91;;;14.41;86.54
53647;BME280;39550;52.230;5.194;2023-08-07T05:22:20;101242.66;;;14.37;86.73
53647;BME280;39550;52.230;5.194;2023-08-07T05:24:45;101236.59;;;14.30;86.20
53647;BME280;39550;52.230;5.194;2023-08-07T05:27:11;101243.50;;;14.38;86.74
53647;BME280;39550;52.230;5.194;2023-08-07T05:29:37;101230.56;;;14.22;86.20
53647;BME280;39550;52.230;5.194;2023-08-07T05:32:12;101258.19;;;14.39;86.83
53647;BME280;39550;52.230;5.194;2023-08-07T05:34:38;101258.19;;;14.42;85.67
53647;BME280;39550;52.230;5.194;2023-08-07T05:37:07;101228.84;;;14.21;86.31
53647;BME280;39550;52.230;5.194;2023-08-07T05:39:34;101251.28;;;14.35;86.23
53647;BME280;39550;52.230;5.194;2023-08-07T05:41:59;101236.63;;;14.27;86.57
53647;BME280;39550;52.230;5.194;2023-08-07T05:44:28;101267.69;;;14.43;86.48
53647;BME280;39550;52.230;5.194;2023-08-07T05:46:54;101269.41;;;14.42;86.05
53647;BME280;39550;52.230;5.194;2023-08-07T05:49:19;101265.97;;;14.40;85.99
53647;BME280;39550;52.230;5.194;2023-08-07T05:51:45;101255.63;;;14.37;85.83
53647;BME280;39550;52.230;5.194;2023-08-07T05:54:10;101265.97;;;14.40;86.43
53647;BME280;39550;52.230;5.194;2023-08-07T05:56:42;101259.91;;;14.37;86.18
53647;BME280;39550;52.230;5.194;2023-08-07T05:59:08;101267.69;;;14.46;86.06
53647;BME280;39550;52.230;5.194;2023-08-07T06:01:33;101280.66;;;14.49;85.83
53647;BME280;39550;52.230;5.194;2023-08-07T06:03:59;101208.09;;;14.07;85.17
53647;BME280;39550;52.230;5.194;2023-08-07T06:06:30;101255.63;;;14.37;85.97
53647;BME280;39550;52.230;5.194;2023-08-07T06:08:59;101249.56;;;14.30;85.76
53647;BME280;39550;52.230;5.194;2023-08-07T06:11:28;101264.25;;;14.38;85.69
53647;BME280;39550;52.230;5.194;2023-08-07T06:13:53;101292.75;;;14.53;85.38
53647;BME280;39550;52.230;5.194;2023-08-07T06:16:18;101293.63;;;14.55;85.60
53647;BME280;39550;52.230;5.194;2023-08-07T06:18:46;101239.19;;;14.24;85.48
53647;BME280;39550;52.230;5.194;2023-08-07T06:21:14;101289.28;;;14.54;85.84
53647;BME280;39550;52.230;5.194;2023-08-07T06:23:45;101296.22;;;14.55;85.19
53647;BME280;39550;52.230;5.194;2023-08-07T06:26:11;101279.78;;;14.39;85.95
53647;BME280;39550;52.230;5.194;2023-08-07T06:28:36;101260.81;;;14.25;85.64
53647;BME280;39550;52.230;5.194;2023-08-07T06:31:07;101308.31;;;14.53;85.91
53647;BME280;39550;52.230;5.194;2023-08-07T06:33:33;101266.84;;;14.28;85.23
53647;BME280;39550;52.230;5.194;2023-08-07T06:35:59;101303.97;;;14.51;85.60
53647;BME280;39550;52.230;5.194;2023-08-07T06:38:24;101277.22;;;14.35;85.43
53647;BME280;39550;52.230;5.194;2023-08-07T06:40:53;101325.59;;;14.57;85.46
53647;BME280;39550;52.230;5.194;2023-08-07T06:43:18;101325.59;;;14.57;85.41
53647;BME280;39550;52.230;5.194;2023-08-07T06:45:46;101310.91;;;14.52;85.38
53647;BME280;39550;52.230;5.194;2023-08-07T06:48:12;101325.59;;;14.53;85.71
53647;BME280;39550;52.230;5.194;2023-08-07T06:50:37;101321.28;;;14.45;85.26
53647;BME280;39550;52.230;5.194;2023-08-07T06:53:03;101305.72;;;14.35;85.92
53647;BME280;39550;52.230;5.194;2023-08-07T06:55:28;101298.81;;;14.34;85.48
53647;BME280;39550;52.230;5.194;2023-08-07T06:57:53;101310.06;;;14.39;85.12
53647;BME280;39550;52.230;5.194;2023-08-07T07:00:19;101335.97;;;14.51;85.82
53647;BME280;39550;52.230;5.194;2023-08-07T07:02:44;101280.66;;;14.21;85.40
53647;BME280;39550;52.230;5.194;2023-08-07T07:05:10;101329.06;;;14.52;85.59
53647;BME280;39550;52.230;5.194;2023-08-07T07:07:38;101345.53;;;14.68;85.21
53647;BME280;39550;52.230;5.194;2023-08-07T07:10:04;101339.44;;;14.66;85.02
53647;BME280;39550;52.230;5.194;2023-08-07T07:12:29;101341.19;;;14.70;84.77
53647;BME280;39550;52.230;5.194;2023-08-07T07:14:55;101310.03;;;14.54;84.68
53647;BME280;39550;52.230;5.194;2023-08-07T07:17:20;101340.31;;;14.69;84.41
53647;BME280;39550;52.230;5.194;2023-08-07T07:19:45;101343.78;;;14.65;84.97
53647;BME280;39550;52.230;5.194;2023-08-07T07:22:11;101360.19;;;14.69;85.27
53647;BME280;39550;52.230;5.194;2023-08-07T07:24:36;101343.75;;;14.60;84.79
53647;BME280;39550;52.230;5.194;2023-08-07T07:27:02;101367.09;;;14.73;84.72
53647;BME280;39550;52.230;5.194;2023-08-07T07:29:28;101306.59;;;14.37;84.66
53647;BME280;39550;52.230;5.194;2023-08-07T07:31:53;101367.97;;;14.67;84.87
53647;BME280;39550;52.230;5.194;2023-08-07T07:34:20;101370.56;;;14.69;85.59
53647;BME280;39550;52.230;5.194;2023-08-07T07:36:45;101362.81;;;14.64;85.48
53647;BME280;39550;52.230;5.194;2023-08-07T07:39:11;101346.34;;;14.48;85.43
53647;BME280;39550;52.230;5.194;2023-08-07T07:41:36;101367.06;;;14.60;85.15
53647;BME280;39550;52.230;5.194;2023-08-07T07:44:02;101339.41;;;14.44;85.12
53647;BME280;39550;52.230;5.194;2023-08-07T07:46:27;101367.06;;;14.60;85.31
53647;BME280;39550;52.230;5.194;2023-08-07T07:48:56;101334.22;;;14.44;85.32
53647;BME280;39550;52.230;5.194;2023-08-07T07:51:22;101384.44;;;14.68;85.49
53647;BME280;39550;52.230;5.194;2023-08-07T07:53:47;101387.88;;;14.68;85.54
53647;BME280;39550;52.230;5.194;2023-08-07T07:56:12;101389.56;;;14.61;85.63
53647;BME280;39550;52.230;5.194;2023-08-07T07:58:38;101387.81;;;14.60;85.42
53647;BME280;39550;52.230;5.194;2023-08-07T08:01:03;101405.19;;;14.68;85.16
53647;BME280;39550;52.230;5.194;2023-08-07T08:03:29;101413.81;;;14.73;85.41
53647;BME280;39550;52.230;5.194;2023-08-07T08:05:54;101413.78;;;14.74;85.13
53647;BME280;39550;52.230;5.194;2023-08-07T08:08:19;101402.56;;;14.64;85.24
53647;BME280;39550;52.230;5.194;2023-08-07T08:10:45;101387.84;;;14.56;85.08
53647;BME280;39550;52.230;5.194;2023-08-07T08:13:13;101399.09;;;14.69;84.91
53647;BME280;39550;52.230;5.194;2023-08-07T08:15:38;101390.41;;;14.60;84.71
53647;BME280;39550;52.230;5.194;2023-08-07T08:18:03;101412.06;;;14.78;84.88
53647;BME280;39550;52.230;5.194;2023-08-07T08:20:29;101391.31;;;14.66;84.90
53647;BME280;39550;52.230;5.194;2023-08-07T08:22:56;101384.41;;;14.71;84.00
53647;BME280;39550;52.230;5.194;2023-08-07T08:25:21;101419.00;;;14.91;84.03
53647;BME280;39550;52.230;5.194;2023-08-07T08:27:47;101391.34;;;14.72;84.45
53647;BME280;39550;52.230;5.194;2023-08-07T08:30:12;101381.78;;;14.57;84.84
53647;BME280;39550;52.230;5.194;2023-08-07T08:32:38;101422.47;;;14.72;84.28
53647;BME280;39550;52.230;5.194;2023-08-07T08:35:05;101412.91;;;14.60;85.15
53647;BME280;39550;52.230;5.194;2023-08-07T08:37:31;101443.22;;;14.72;85.21
53647;BME280;39550;52.230;5.194;2023-08-07T08:39:56;101445.81;;;14.73;84.80
53647;BME280;39550;52.230;5.194;2023-08-07T08:42:21;101440.59;;;14.70;84.90
53647;BME280;39550;52.230;5.194;2023-08-07T08:44:56;101442.34;;;14.76;84.47
53647;BME280;39550;52.230;5.194;2023-08-07T08:47:22;101431.09;;;14.74;84.39
53647;BME280;39550;52.230;5.194;2023-08-07T08:50:01;101443.22;;;14.78;84.06
53647;BME280;39550;52.230;5.194;2023-08-07T08:52:28;101438.03;;;14.75;84.51
53647;BME280;39550;52.230;5.194;2023-08-07T08:54:55;101400.81;;;14.60;84.42
53647;BME280;39550;52.230;5.194;2023-08-07T08:57:21;101403.44;;;14.71;83.71
53647;BME280;39550;52.230;5.194;2023-08-07T08:59:46;101407.75;;;14.71;83.50
53647;BME280;39550;52.230;5.194;2023-08-07T09:02:12;101406.03;;;14.71;84.23
53647;BME280;39550;52.230;5.194;2023-08-07T09:04:38;101419.00;;;14.85;83.69
53647;BME280;39550;52.230;5.194;2023-08-07T09:07:06;101428.50;;;14.86;83.13
53647;BME280;39550;52.230;5.194;2023-08-07T09:09:31;101426.78;;;14.94;83.06
53647;BME280;39550;52.230;5.194;2023-08-07T09:12:01;101367.06;;;14.62;82.66
53647;BME280;39550;52.230;5.194;2023-08-07T09:14:30;101394.78;;;14.80;82.65
53647;BME280;39550;52.230;5.194;2023-08-07T09:17:00;101438.03;;;15.00;83.38
53647;BME280;39550;52.230;5.194;2023-08-07T09:19:26;101463.94;;;15.09;83.01
53647;BME280;39550;52.230;5.194;2023-08-07T09:21:52;101465.72;;;15.04;83.06
53647;BME280;39550;52.230;5.194;2023-08-07T09:24:17;101463.97;;;15.00;83.33
53647;BME280;39550;52.230;5.194;2023-08-07T09:26:47;101476.09;;;14.94;83.23
53647;BME280;39550;52.230;5.194;2023-08-07T09:29:13;101476.09;;;14.94;83.72
53647;BME280;39550;52.230;5.194;2023-08-07T09:31:39;101471.78;;;14.86;83.99
53647;BME280;39550;52.230;5.194;2023-08-07T09:34:07;101472.63;;;14.95;83.88
53647;BME280;39550;52.230;5.194;2023-08-07T09:36:34;101461.38;;;14.92;83.54
53647;BME280;39550;52.230;5.194;2023-08-07T09:39:03;101481.25;;;15.11;83.29
53647;BME280;39550;52.230;5.194;2023-08-07T09:41:30;101427.66;;;14.66;83.23
53647;BME280;39550;52.230;5.194;2023-08-07T09:43:56;101497.69;;;14.93;84.16
53647;BME280;39550;52.230;5.194;2023-08-07T09:46:22;101499.44;;;14.91;83.66
53647;BME280;39550;52.230;5.194;2023-08-07T09:48:48;101490.78;;;14.86;83.83
53647;BME280;39550;52.230;5.194;2023-08-07T09:51:13;101502.03;;;14.97;83.64
53647;BME280;39550;52.230;5.194;2023-08-07T09:53:39;101508.94;;;15.05;83.64
53647;BME280;39550;52.230;5.194;2023-08-07T09:56:04;101476.09;;;14.91;83.51
53647;BME280;39550;52.230;5.194;2023-08-07T09:58:31;101502.91;;;15.07;82.63
53647;BME280;39550;52.230;5.194;2023-08-07T10:01:02;101511.53;;;15.17;83.32
53647;BME280;39550;52.230;5.194;2023-08-07T10:03:28;101509.81;;;15.19;83.28
53647;BME280;39550;52.230;5.194;2023-08-07T10:05:54;101504.63;;;15.24;82.72
53647;BME280;39550;52.230;5.194;2023-08-07T10:08:23;101488.19;;;15.11;82.71
53647;BME280;39550;52.230;5.194;2023-08-07T10:10:50;101484.75;;;15.12;82.77
53647;BME280;39550;52.230;5.194;2023-08-07T10:13:19;101436.31;;;14.85;82.14
53647;BME280;39550;52.230;5.194;2023-08-07T10:15:47;101502.03;;;15.22;82.49
53647;BME280;39550;52.230;5.194;2023-08-07T10:18:12;101505.47;;;15.33;82.33
53647;BME280;39550;52.230;5.194;2023-08-07T10:20:38;101491.63;;;15.22;82.40
53647;BME280;39550;52.230;5.194;2023-08-07T10:23:08;101508.94;;;15.20;82.46
53647;BME280;39550;52.230;5.194;2023-08-07T10:25:35;101498.56;;;15.12;83.01
53647;BME280;39550;52.230;5.194;2023-08-07T10:28:04;101503.75;;;15.19;82.66
53647;BME280;39550;52.230;5.194;2023-08-07T10:30:32;101491.66;;;15.16;82.52
53647;BME280;39550;52.230;5.194;2023-08-07T10:32:58;101510.69;;;15.27;82.21
53647;BME280;39550;52.230;5.194;2023-08-07T10:35:31;101511.53;;;15.39;81.86
53647;BME280;39550;52.230;5.194;2023-08-07T10:38:08;101511.53;;;15.36;82.14
53647;BME280;39550;52.230;5.194;2023-08-07T10:43:36;101519.34;;;15.23;82.54
53647;BME280;39550;52.230;5.194;2023-08-07T10:46:04;101486.47;;;15.07;82.35
53647;BME280;39550;52.230;5.194;2023-08-07T10:48:38;101514.13;;;15.32;82.13
53647;BME280;39550;52.230;5.194;2023-08-07T10:51:04;101510.69;;;15.30;81.68
53647;BME280;39550;52.230;5.194;2023-08-07T10:53:37;101534.91;;;15.39;81.49
53647;BME280;39550;52.230;5.194;2023-08-07T10:56:11;101550.47;;;15.40;81.98
53647;BME280;39550;52.230;5.194;2023-08-07T10:58:40;101537.50;;;15.39;81.52
53647;BME280;39550;52.230;5.194;2023-08-07T11:04:00;101535.75;;;15.42;81.83
53647;BME280;39550;52.230;5.194;2023-08-07T11:06:30;101534.91;;;15.42;82.07
53647;BME280;39550;52.230;5.194;2023-08-07T11:11:43;101417.28;;;14.87;81.04
53647;BME280;39550;52.230;5.194;2023-08-07T11:14:22;101470.88;;;15.19;80.44
53647;BME280;39550;52.230;5.194;2023-08-07T11:16:59;101451.88;;;15.08;80.59
53647;BME280;39550;52.230;5.194;2023-08-07T11:19:28;101538.34;;;15.56;80.87
53647;BME280;39550;52.230;5.194;2023-08-07T11:21:57;101399.97;;;14.64;81.04
53647;BME280;39550;52.230;5.194;2023-08-07T11:24:30;101436.31;;;14.95;80.70
53647;BME280;39550;52.230;5.194;2023-08-07T11:27:02;101536.59;;;15.64;80.34
53647;BME280;39550;52.230;5.194;2023-08-07T11:30:14;101380.94;;;14.66;80.75
53647;BME280;39550;52.230;5.194;2023-08-07T11:32:24;101424.19;;;14.85;80.72
53647;BME280;39550;52.230;5.194;2023-08-07T11:34:55;101486.44;;;15.25;81.06
53647;BME280;39550;52.230;5.194;2023-08-07T11:37:24;101494.22;;;15.33;80.83
53647;BME280;39550;52.230;5.194;2023-08-07T11:39:52;101435.41;;;15.03;80.56
53647;BME280;39550;52.230;5.194;2023-08-07T11:42:27;101490.75;;;15.43;80.13
53647;BME280;39550;52.230;5.194;2023-08-07T11:44:53;101488.16;;;15.29;80.53
53647;BME280;39550;52.230;5.194;2023-08-07T11:47:19;101399.97;;;14.77;80.71
53647;BME280;39550;52.230;5.194;2023-08-07T11:49:47;101405.16;;;14.74;80.34
53647;BME280;39550;52.230;5.194;2023-08-07T11:52:18;101458.75;;;15.18;79.48
53647;BME280;39550;52.230;5.194;2023-08-07T11:54:49;101432.81;;;15.09;79.97
53647;BME280;39550;52.230;5.194;2023-08-07T11:57:16;101450.06;;;15.28;79.74
53647;BME280;39550;52.230;5.194;2023-08-07T11:59:51;101538.28;;;15.78;79.79
53647;BME280;39550;52.230;5.194;2023-08-07T12:02:26;101443.16;;;15.24;79.39
53647;BME280;39550;52.230;5.194;2023-08-07T12:05:13;101390.47;;;14.91;79.34
53647;BME280;39550;52.230;5.194;2023-08-07T12:07:39;101541.78;;;15.92;78.68
53647;BME280;39550;52.230;5.194;2023-08-07T12:10:11;101447.47;;;15.39;78.40
53647;BME280;39550;52.230;5.194;2023-08-07T12:12:47;101437.06;;;15.38;78.94
53647;BME280;39550;52.230;5.194;2023-08-07T12:15:16;101412.91;;;15.22;78.26
53647;BME280;39550;52.230;5.194;2023-08-07T12:17:44;101495.88;;;15.80;78.50
53647;BME280;39550;52.230;5.194;2023-08-07T12:20:19;101399.88;;;15.29;77.76
53647;BME280;39550;52.230;5.194;2023-08-07T12:22:52;101403.31;;;15.41;77.59
53647;BME280;39550;52.230;5.194;2023-08-07T12:25:38;101411.94;;;15.49;77.14
53647;BME280;39550;52.230;5.194;2023-08-07T12:28:09;101399.00;;;15.32;77.99
53647;BME280;39550;52.230;5.194;2023-08-07T12:30:38;101449.97;;;15.72;77.06
53647;BME280;39550;52.230;5.194;2023-08-07T12:33:13;101497.50;;;16.09;76.88
53647;BME280;39550;52.230;5.194;2023-08-07T12:35:42;101456.84;;;15.91;76.90
53647;BME280;39550;52.230;5.194;2023-08-07T12:38:10;101410.16;;;15.66;75.93
53647;BME280;39550;52.230;5.194;2023-08-07T12:40:42;101453.28;;;16.14;75.16
53647;BME280;39550;52.230;5.194;2023-08-07T12:43:10;101427.44;;;15.74;75.76
53647;BME280;39550;52.230;5.194;2023-08-07T12:45:44;101492.38;;;15.88;77.02
53647;BME280;39550;52.230;5.194;2023-08-07T12:48:09;101463.88;;;15.58;77.17
53647;BME280;39550;52.230;5.194;2023-08-07T12:50:38;101465.56;;;15.65;77.05
53647;BME280;39550;52.230;5.194;2023-08-07T12:53:04;101466.50;;;15.54;77.59
53647;BME280;39550;52.230;5.194;2023-08-07T12:55:30;101480.25;;;15.90;76.26
53647;BME280;39550;52.230;5.194;2023-08-07T12:57:59;101475.88;;;16.03;75.50
53647;BME280;39550;52.230;5.194;2023-08-07T13:00:28;101453.19;;;16.26;74.65
53647;BME280;39550;52.230;5.194;2023-08-07T13:02:53;101454.25;;;15.93;75.17
53647;BME280;39550;52.230;5.194;2023-08-07T13:05:21;101501.84;;;16.06;75.94